Dades meteomassalio
Diari Summary for Setembre 4, 2017 Units:  English    Metric   Both
« Previous Day
Next Day »
Diari Semanal Mensual Anual Personalitzat
  Maxima: Minima: Mijana:
Temperatura: TemperatureC °F 11.7 °F 20.1 °F
Rosada: DewpointC °F 9.1 °F 13.4 °F
Humitat: Humidity % 40 % 67 %
Velocitat del vent: WindSpeedKMH mph 0.0 mph 5.8 mph
Racha vent: WindSpeedGustKMH mph - -
Vent:- - SSE
Pressio: PressurehPa in 1013.4 in -
Pluja: 0.0 in    
Historical Graphs
 
 
Tabular Data for Setembre 4, 2017
Time Temperature Dew Point Pressure Wind Wind Speed Wind Gust Humidity Rainfall Rate (Hourly) solar Conditions
TemperatureC °F DewpointC °F PressurehPa in Calm     Humidity % HourlyPrecipMM in SolarRadiationWatts/m^2 W/m2 Conditions
00:01 16.7 °F 10.7 °F 1015.8 in Calm     68 % 0.0 in 0.0 W/m2 RA
00:06 17.2 °F 11.9 °F 1016.1 in Calm     71 % 0.0 in 0.0 W/m2 CLR
00:11 16.7 °F 12.2 °F 1016.1 in Calm     75 % 0.0 in 0.0 W/m2 CLR
00:16 16.7 °F 12.8 °F 1016.1 in Calm     78 % 0.0 in 0.0 W/m2 CLR
00:21 16.7 °F 13.0 °F 1016.1 in Calm     79 % 0.0 in 0.0 W/m2 CLR
00:26 16.7 °F 13.0 °F 1015.8 in Calm     79 % 0.0 in 0.0 W/m2 CLR
00:31 16.7 °F 13.2 °F 1015.8 in Calm     80 % 0.5 in 0.0 W/m2 CLR
00:36 16.7 °F 13.6 °F 1015.8 in Calm     82 % 0.3 in 0.0 W/m2 CLR
00:41 16.7 °F 13.6 °F 1015.8 in Calm     82 % 0.0 in 0.0 W/m2 CLR
00:46 16.7 °F 13.6 °F 1015.8 in Calm     82 % 0.0 in 0.0 W/m2 CLR
00:51 16.7 °F 13.4 °F 1015.8 in Calm     81 % 0.0 in 0.0 W/m2 CLR
00:56 16.7 °F 13.6 °F 1015.8 in Calm     82 % 0.0 in 0.0 W/m2 CLR
01:01 16.7 °F 13.8 °F 1015.5 in Calm     83 % 0.0 in 0.0 W/m2 CLR
01:06 16.1 °F 13.2 °F 1015.5 in Calm     83 % 0.0 in 0.0 W/m2 CLR
01:11 16.1 °F 12.4 °F 1015.5 in Calm     79 % 0.0 in 0.0 W/m2 CLR
01:16 16.1 °F 10.8 °F 1015.5 in SE 13.0 mph 13.0 mph 71 % 0.0 in 0.0 W/m2 CLR
01:21 16.1 °F 9.8 °F 1015.5 in SSE 13.0 mph 13.0 mph 66 % 0.0 in 0.0 W/m2 CLR
01:23 16.1 °F 9.5 °F 1015.5 in SE 7.4 mph 7.4 mph 65 % 0.0 in 0.0 W/m2 CLR
01:27 16.1 °F 9.5 °F 1015.1 in Calm     65 % 0.0 in 0.0 W/m2 CLR
01:32 16.1 °F 9.1 °F 1015.5 in Calm     63 % 0.0 in 0.0 W/m2 CLR
01:33 16.1 °F 9.1 °F 1015.5 in Calm     63 % 0.0 in 0.0 W/m2 CLR
01:38 16.1 °F 10.0 °F 1015.5 in Calm     67 % 0.0 in 0.0 W/m2 CLR
01:43 16.1 °F 10.2 °F 1015.5 in Calm     68 % 0.0 in 0.0 W/m2 CLR
01:48 15.6 °F 10.3 °F 1015.1 in Calm     71 % 0.0 in 0.0 W/m2 CLR
01:53 15.6 °F 10.9 °F 1015.1 in Calm     74 % 0.0 in 0.0 W/m2 CLR
01:58 15.6 °F 11.2 °F 1015.1 in Calm     75 % 0.0 in 0.0 W/m2 CLR
02:03 15.0 °F 10.8 °F 1015.1 in Calm     76 % 0.0 in 0.0 W/m2 CLR
02:08 15.0 °F 10.4 °F 1014.8 in Calm     74 % 0.0 in 0.0 W/m2 CLR
02:13 15.0 °F 10.4 °F 1014.8 in Calm     74 % 0.0 in 0.0 W/m2 CLR
02:18 15.0 °F 10.6 °F 1014.8 in Calm     75 % 0.0 in 0.0 W/m2 CLR
02:23 15.0 °F 10.6 °F 1014.8 in Calm     75 % 0.0 in 0.0 W/m2 CLR
02:28 15.0 °F 10.6 °F 1014.8 in Calm     75 % 0.0 in 0.0 W/m2 CLR
02:33 15.0 °F 10.4 °F 1014.4 in Calm     74 % 0.0 in 0.0 W/m2 CLR
02:38 15.0 °F 11.2 °F 1014.4 in Calm     78 % 0.0 in 0.0 W/m2 CLR
02:43 15.0 °F 11.4 °F 1014.4 in Calm     79 % 0.0 in 0.0 W/m2 CLR
02:48 15.0 °F 10.6 °F 1014.4 in Calm     75 % 0.0 in 0.0 W/m2 CLR
02:53 15.0 °F 10.6 °F 1014.4 in Calm     75 % 0.0 in 0.0 W/m2 CLR
02:58 15.0 °F 10.6 °F 1014.4 in Calm     75 % 0.0 in 0.0 W/m2 CLR
03:03 14.4 °F 10.1 °F 1014.4 in Calm     75 % 0.0 in 0.0 W/m2 CLR
03:08 14.4 °F 9.9 °F 1014.4 in Calm     74 % 0.0 in 0.0 W/m2 CLR
03:13 14.4 °F 10.7 °F 1014.4 in Calm     78 % 0.0 in 0.0 W/m2 CLR
03:18 14.4 °F 10.7 °F 1014.4 in Calm     78 % 0.0 in 0.0 W/m2 CLR
03:23 14.4 °F 10.8 °F 1014.4 in Calm     79 % 0.0 in 0.0 W/m2 CLR
03:28 15.0 °F 11.2 °F 1014.4 in Calm     78 % 0.0 in 0.0 W/m2 CLR
03:33 15.0 °F 11.2 °F 1014.4 in Calm     78 % 0.0 in 0.0 W/m2 CLR
03:38 15.0 °F 10.8 °F 1014.4 in Calm     76 % 0.0 in 0.0 W/m2 CLR
03:43 15.0 °F 10.8 °F 1014.4 in Calm     76 % 0.0 in 0.0 W/m2 CLR
03:48 15.0 °F 10.8 °F 1014.1 in Calm     76 % 0.0 in 0.0 W/m2 CLR
03:53 15.0 °F 10.6 °F 1014.1 in Calm     75 % 0.0 in 0.0 W/m2 CLR
03:58 15.0 °F 10.8 °F 1014.1 in Calm     76 % 0.0 in 0.0 W/m2 CLR
04:03 15.0 °F 10.6 °F 1014.1 in Calm     75 % 0.0 in 0.0 W/m2 CLR
04:08 15.0 °F 11.0 °F 1014.1 in Calm     77 % 0.0 in 0.0 W/m2 CLR
04:13 14.4 °F 10.7 °F 1013.8 in Calm     78 % 0.0 in 0.0 W/m2 CLR
04:18 14.4 °F 10.7 °F 1013.8 in Calm     78 % 0.0 in 0.0 W/m2 CLR
04:23 14.4 °F 10.7 °F 1013.8 in Calm     78 % 0.0 in 0.0 W/m2 CLR
04:28 14.4 °F 10.4 °F 1013.8 in Calm     77 % 0.0 in 0.0 W/m2 CLR
04:33 14.4 °F 10.3 °F 1013.8 in Calm     76 % 0.0 in 0.0 W/m2 CLR
04:38 14.4 °F 10.4 °F 1013.8 in Calm     77 % 0.0 in 0.0 W/m2 CLR
04:43 14.4 °F 10.3 °F 1013.8 in Calm     76 % 0.0 in 0.0 W/m2 CLR
04:48 14.4 °F 11.1 °F 1013.8 in Calm     80 % 0.0 in 0.0 W/m2 CLR
04:53 14.4 °F 11.2 °F 1013.8 in Calm     81 % 0.0 in 0.0 W/m2 CLR
04:58 14.4 °F 11.4 °F 1013.8 in Calm     82 % 0.0 in 0.0 W/m2 CLR
05:03 14.4 °F 11.6 °F 1013.8 in Calm     83 % 0.0 in 0.0 W/m2 CLR
05:08 14.4 °F 11.6 °F 1013.8 in Calm     83 % 0.0 in 0.0 W/m2 CLR
05:13 14.4 °F 11.2 °F 1013.8 in Calm     81 % 0.0 in 0.0 W/m2 CLR
05:18 14.4 °F 11.2 °F 1013.4 in South 1.9 mph   81 % 0.0 in 0.0 W/m2 CLR
05:19 14.4 °F 11.2 °F 1013.4 in Calm     81 % 0.0 in 0.0 W/m2 CLR
05:23 14.4 °F 11.2 °F 1013.8 in Calm     81 % 0.0 in 0.0 W/m2 CLR
05:28 14.4 °F 11.1 °F 1013.4 in Calm     80 % 0.0 in 0.0 W/m2 CLR
05:33 14.4 °F 10.8 °F 1013.4 in Calm     79 % 0.0 in 0.0 W/m2 CLR
05:38 14.4 °F 10.8 °F 1013.4 in Calm     79 % 0.0 in 0.0 W/m2 CLR
05:43 14.4 °F 11.1 °F 1013.4 in Calm     80 % 0.0 in 0.0 W/m2 CLR
05:48 13.9 °F 10.5 °F 1013.8 in Calm     80 % 0.0 in 0.0 W/m2 CLR
05:53 13.9 °F 10.7 °F 1013.8 in Calm     81 % 0.0 in 0.0 W/m2 CLR
05:58 13.9 °F 10.9 °F 1013.8 in Calm     82 % 0.0 in 0.0 W/m2 CLR
06:03 13.9 °F 10.9 °F 1013.8 in Calm     82 % 0.0 in 0.0 W/m2 CLR
06:08 13.3 °F 10.2 °F 1013.8 in Calm     81 % 0.0 in 0.0 W/m2 CLR
06:13 13.3 °F 10.2 °F 1013.8 in Calm     81 % 0.0 in 0.0 W/m2 CLR
06:18 13.3 °F 10.2 °F 1013.8 in Calm     81 % 0.0 in 0.0 W/m2 CLR
06:23 12.8 °F 9.6 °F 1013.8 in Calm     81 % 0.0 in 0.0 W/m2 CLR
06:28 12.8 °F 9.6 °F 1013.8 in Calm     81 % 0.0 in 0.0 W/m2 CLR
06:33 12.8 °F 9.8 °F 1013.8 in Calm     82 % 0.0 in 0.0 W/m2 CLR
06:38 12.8 °F 9.8 °F 1013.8 in Calm     82 % 0.0 in 0.0 W/m2 CLR
06:43 12.8 °F 9.9 °F 1013.8 in Calm     83 % 0.0 in 0.0 W/m2 CLR
06:48 12.2 °F 9.6 °F 1013.8 in Calm     84 % 0.0 in 0.0 W/m2 CLR
06:53 12.2 °F 9.6 °F 1013.8 in Calm     84 % 0.0 in 0.0 W/m2 CLR
06:58 12.2 °F 9.8 °F 1013.8 in Calm     85 % 0.0 in 0.0 W/m2 CLR
07:03 12.2 °F 9.8 °F 1013.8 in Calm     85 % 0.0 in 0.0 W/m2 CLR
07:08 12.2 °F 9.8 °F 1013.8 in Calm     85 % 0.0 in 0.0 W/m2 CLR
07:13 11.7 °F 9.2 °F 1013.8 in Calm     85 % 0.0 in 0.0 W/m2 CLR
07:18 11.7 °F 9.4 °F 1013.8 in Calm     86 % 0.0 in 0.0 W/m2 CLR
07:23 11.7 °F 9.4 °F 1014.1 in Calm     86 % 0.0 in 0.0 W/m2 OVC
07:28 11.7 °F 9.4 °F 1014.1 in Calm     86 % 0.0 in 0.0 W/m2 OVC
07:33 11.7 °F 9.4 °F 1014.1 in Calm     86 % 0.0 in 0.0 W/m2 OVC
07:38 11.7 °F 9.6 °F 1014.4 in Calm     87 % 0.0 in 7.0 W/m2 BKN
07:43 11.7 °F 9.6 °F 1014.4 in Calm     87 % 0.0 in 11.0 W/m2 BKN
07:48 11.7 °F 9.6 °F 1014.8 in Calm     87 % 0.0 in 12.0 W/m2 BKN
07:53 11.7 °F 9.6 °F 1014.8 in Calm     87 % 0.0 in 18.0 W/m2 BKN
07:58 11.7 °F 9.6 °F 1014.8 in Calm     87 % 0.0 in 21.0 W/m2 BKN
08:04 12.2 °F 10.1 °F 1014.8 in SSE 8.0 mph 8.0 mph 87 % 0.0 in 28.0 W/m2 BKN
08:09 12.8 °F 10.7 °F 1014.8 in Calm     87 % 0.0 in 39.0 W/m2 BKN
08:14 12.8 °F 10.8 °F 1014.8 in Calm     88 % 0.0 in 39.0 W/m2 BKN
08:19 12.8 °F 10.8 °F 1015.1 in Calm     88 % 0.0 in 54.0 W/m2 SCT
08:24 13.3 °F 11.4 °F 1015.1 in Calm     88 % 0.0 in 60.0 W/m2 SCT
08:29 13.9 °F 11.8 °F 1015.1 in Calm     87 % 0.0 in 62.0 W/m2 SCT
08:34 13.9 °F 11.8 °F 1015.1 in Calm     87 % 0.0 in 120.0 W/m2 FEW
08:39 13.9 °F 11.6 °F 1015.5 in Calm     86 % 0.0 in 69.0 W/m2 FEW
08:44 13.9 °F 11.8 °F 1015.5 in Calm     87 % 0.0 in 98.0 W/m2 FEW
08:49 14.4 °F 12.3 °F 1015.5 in Calm     87 % 0.0 in 95.0 W/m2 CLR
08:54 15.0 °F 12.7 °F 1015.5 in Calm     86 % 0.0 in 200.0 W/m2 CLR
08:59 15.0 °F 12.5 °F 1015.5 in Calm     85 % 0.0 in 105.0 W/m2 CLR
09:04 15.0 °F 12.3 °F 1015.5 in Calm     84 % 0.0 in 63.0 W/m2 CLR
09:09 15.0 °F 12.1 °F 1015.5 in Calm     83 % 0.0 in 236.0 W/m2 CLR
09:14 15.6 °F 12.5 °F 1015.5 in Calm     82 % 0.0 in 246.0 W/m2 CLR
09:19 16.1 °F 12.7 °F 1015.8 in Calm     80 % 0.0 in 262.0 W/m2 CLR
09:24 16.7 °F 12.6 °F 1015.8 in Calm     77 % 0.0 in 279.0 W/m2 CLR
09:29 16.7 °F 12.2 °F 1015.8 in Calm     75 % 0.0 in 294.0 W/m2 CLR
09:34 16.7 °F 11.8 °F 1015.8 in Calm     73 % 0.0 in 306.0 W/m2 CLR
09:39 17.8 °F 12.7 °F 1015.8 in Calm     72 % 0.0 in 315.0 W/m2 CLR
09:44 18.3 °F 13.0 °F 1016.1 in Calm     71 % 0.0 in 338.0 W/m2 CLR
09:49 18.3 °F 12.1 °F 1016.1 in Calm     67 % 0.0 in 352.0 W/m2 CLR
09:54 18.9 °F 12.8 °F 1016.1 in SSW 18.5 mph 18.5 mph 68 % 0.0 in 366.0 W/m2 CLR
09:59 18.9 °F 13.3 °F 1016.5 in SSW 13.0 mph 13.0 mph 70 % 0.0 in 380.0 W/m2 CLR
10:04 19.4 °F 13.8 °F 1016.5 in SSE 9.3 mph 9.3 mph 70 % 0.0 in 394.0 W/m2 CLR
10:09 19.4 °F 13.8 °F 1016.5 in WSW 5.6 mph 5.6 mph 70 % 0.0 in 410.0 W/m2 CLR
10:14 20.0 °F 14.8 °F 1016.8 in WSW 9.3 mph 9.3 mph 72 % 0.0 in 425.0 W/m2 CLR
10:19 20.0 °F 15.0 °F 1016.8 in SSW 13.0 mph 13.0 mph 73 % 0.0 in 441.0 W/m2 CLR
10:24 20.6 °F 14.9 °F 1016.8 in South 20.4 mph 20.4 mph 70 % 0.0 in 455.0 W/m2 CLR
10:29 20.6 °F 14.7 °F 1016.8 in South 13.0 mph 13.0 mph 69 % 0.0 in 471.0 W/m2 CLR
10:34 20.6 °F 14.7 °F 1016.8 in SSW 7.4 mph 7.4 mph 69 % 0.0 in 487.0 W/m2 CLR
10:39 21.1 °F 14.7 °F 1016.8 in South 18.5 mph 18.5 mph 67 % 0.0 in 497.0 W/m2 CLR
10:44 21.1 °F 14.5 °F 1016.8 in South 13.0 mph 13.0 mph 66 % 0.0 in 512.0 W/m2 CLR
10:49 21.1 °F 14.5 °F 1017.2 in WSW 16.7 mph 16.7 mph 66 % 0.0 in 531.0 W/m2 CLR
10:54 21.7 °F 14.6 °F 1017.2 in SSW 7.4 mph 7.4 mph 64 % 0.0 in 543.0 W/m2 CLR
10:59 21.7 °F 14.8 °F 1017.2 in SSW 18.5 mph 18.5 mph 65 % 0.0 in 557.0 W/m2 CLR
11:04 22.2 °F 15.1 °F 1017.2 in SW 11.1 mph 11.1 mph 64 % 0.0 in 570.0 W/m2 CLR
11:09 22.2 °F 14.8 °F 1017.2 in SSW 16.1 mph 16.1 mph 63 % 0.0 in 578.0 W/m2 CLR
11:14 22.2 °F 14.6 °F 1017.2 in SSW 20.4 mph 20.4 mph 62 % 0.0 in 585.0 W/m2 CLR
11:19 22.8 °F 15.1 °F 1017.2 in South 22.2 mph 22.2 mph 62 % 0.0 in 596.0 W/m2 CLR
11:24 22.8 °F 15.4 °F 1017.2 in SSW 25.9 mph 25.9 mph 63 % 0.0 in 608.0 W/m2 CLR
11:29 22.8 °F 15.4 °F 1017.2 in SSW 14.5 mph 14.5 mph 63 % 0.0 in 621.0 W/m2 CLR
11:34 23.3 °F 15.9 °F 1017.2 in SSE 14.8 mph 14.8 mph 63 % 0.0 in 635.0 W/m2 CLR
11:39 23.3 °F 16.1 °F 1017.2 in SSW 12.9 mph 12.9 mph 64 % 0.0 in 645.0 W/m2 CLR
11:44 23.3 °F 16.1 °F 1017.2 in South 16.1 mph 16.1 mph 64 % 0.0 in 659.0 W/m2 CLR
11:49 23.3 °F 16.4 °F 1017.2 in WSW 16.7 mph 16.7 mph 65 % 0.0 in 671.0 W/m2 CLR
11:54 23.3 °F 16.6 °F 1017.2 in SW 24.1 mph 24.1 mph 66 % 0.0 in 675.0 W/m2 CLR
11:59 23.9 °F 16.9 °F 1017.5 in South 24.1 mph 24.1 mph 65 % 0.0 in 686.0 W/m2 CLR
12:04 23.9 °F 16.7 °F 1017.5 in South 18.5 mph 18.5 mph 64 % 0.0 in 701.0 W/m2 CLR
12:09 23.9 °F 16.9 °F 1017.5 in SSW 20.4 mph 20.4 mph 65 % 0.0 in 710.0 W/m2 CLR
12:14 23.9 °F 16.9 °F 1017.5 in SSW 16.7 mph 16.7 mph 65 % 0.0 in 703.0 W/m2 CLR
12:19 23.9 °F 16.9 °F 1017.2 in SW 25.9 mph 25.9 mph 65 % 0.0 in 722.0 W/m2 CLR
12:24 24.4 °F 17.4 °F 1017.5 in SW 22.2 mph 22.2 mph 65 % 0.0 in 737.0 W/m2 CLR
12:29 23.9 °F 16.7 °F 1017.5 in SW 18.5 mph 18.5 mph 64 % 0.0 in 745.0 W/m2 CLR
12:34 24.4 °F 16.9 °F 1017.5 in SW 11.1 mph 11.1 mph 63 % 0.0 in 749.0 W/m2 CLR
12:39 24.4 °F 17.2 °F 1017.5 in SSW 16.7 mph 16.7 mph 64 % 0.0 in 752.0 W/m2 CLR
12:44 24.4 °F 16.9 °F 1017.5 in SW 20.9 mph 20.9 mph 63 % 0.0 in 765.0 W/m2 CLR
12:49 24.4 °F 16.7 °F 1017.5 in SSW 14.8 mph 14.8 mph 62 % 0.0 in 763.0 W/m2 CLR
12:54 24.4 °F 16.2 °F 1017.5 in SW 22.2 mph 22.2 mph 60 % 0.0 in 775.0 W/m2 CLR
12:59 24.4 °F 16.4 °F 1017.5 in SW 16.7 mph 16.7 mph 61 % 0.0 in 777.0 W/m2 CLR
13:04 24.4 °F 16.2 °F 1017.5 in SW 16.7 mph 16.7 mph 60 % 0.0 in 780.0 W/m2 CLR
13:09 25.0 °F 16.7 °F 1017.5 in WSW 14.5 mph 14.5 mph 60 % 0.0 in 789.0 W/m2 CLR
13:14 25.0 °F 16.2 °F 1017.5 in WSW 13.0 mph 13.0 mph 58 % 0.0 in 796.0 W/m2 CLR
13:19 25.0 °F 16.2 °F 1017.5 in WSW 14.8 mph 14.8 mph 58 % 0.0 in 800.0 W/m2 CLR
13:24 25.0 °F 15.6 °F 1017.5 in SW 11.1 mph 11.1 mph 56 % 0.0 in 789.0 W/m2 CLR
13:29 25.6 °F 16.1 °F 1017.5 in SSW 18.5 mph 18.5 mph 56 % 0.0 in 800.0 W/m2 CLR
13:34 25.6 °F 15.3 °F 1017.5 in SW 11.3 mph 11.3 mph 53 % 0.0 in 805.0 W/m2 CLR
13:39 25.6 °F 14.9 °F 1017.5 in West 14.8 mph 14.8 mph 52 % 0.0 in 805.0 W/m2 CLR
13:44 25.6 °F 14.9 °F 1017.5 in Calm     52 % 0.0 in 807.0 W/m2 CLR
13:49 25.6 °F 14.7 °F 1017.5 in SSW 9.3 mph 9.3 mph 51 % 0.0 in 810.0 W/m2 CLR
13:54 26.1 °F 15.2 °F 1017.5 in SW 11.1 mph 11.1 mph 51 % 0.0 in 810.0 W/m2 CLR
13:59 26.7 °F 16.0 °F 1017.5 in SE 3.2 mph 3.2 mph 52 % 0.0 in 814.0 W/m2 CLR
14:04 26.1 °F 14.6 °F 1017.5 in SSW 5.6 mph 5.6 mph 49 % 0.0 in 814.0 W/m2 CLR
14:09 26.7 °F 15.1 °F 1017.5 in Calm     49 % 0.0 in 812.0 W/m2 CLR
14:14 26.7 °F 14.4 °F 1017.5 in WSW 5.6 mph   47 % 0.0 in 809.0 W/m2 CLR
14:19 26.7 °F 14.4 °F 1017.5 in SSW 11.1 mph 11.1 mph 47 % 0.0 in 814.0 W/m2 CLR
14:24 26.7 °F 14.7 °F 1017.8 in Calm     48 % 0.0 in 812.0 W/m2 CLR
14:29 27.2 °F 14.6 °F 1017.8 in Calm     46 % 0.0 in 805.0 W/m2 CLR
14:34 26.7 °F 14.7 °F 1017.8 in NW 5.6 mph   48 % 0.0 in 807.0 W/m2 CLR
14:39 26.7 °F 14.4 °F 1017.5 in WNW 11.1 mph 11.1 mph 47 % 0.0 in 802.0 W/m2 CLR
14:45 26.7 °F 13.7 °F 1017.8 in West 14.8 mph   45 % 0.0 in 802.0 W/m2 CLR
14:50 27.2 °F 14.9 °F 1017.8 in WSW 5.6 mph   47 % 0.0 in 798.0 W/m2 CLR
14:51 27.2 °F 14.3 °F 1017.5 in WSW 1.6 mph 1.6 mph 45 % 0.0 in 798.0 W/m2 CLR
14:56 27.2 °F 13.6 °F 1017.8 in Calm     43 % 0.0 in 791.0 W/m2 CLR
15:01 27.2 °F 13.6 °F 1017.8 in ESE 9.3 mph   43 % 0.0 in 788.0 W/m2 CLR
15:06 27.8 °F 14.4 °F 1017.5 in Calm     44 % 0.0 in 780.0 W/m2 CLR
15:11 27.2 °F 13.6 °F 1017.5 in Calm     43 % 0.0 in 773.0 W/m2 CLR
15:16 27.2 °F 13.9 °F 1017.5 in NNW 9.3 mph 9.3 mph 44 % 0.0 in 770.0 W/m2 CLR
15:21 27.2 °F 13.6 °F 1017.5 in Calm     43 % 0.0 in 763.0 W/m2 CLR
15:26 27.2 °F 14.3 °F 1017.5 in Calm     45 % 0.0 in 758.0 W/m2 CLR
15:31 27.8 °F 13.7 °F 1017.5 in Calm     42 % 0.0 in 747.0 W/m2 CLR
15:36 28.3 °F 14.2 °F 1017.5 in WSW 3.7 mph 3.7 mph 42 % 0.0 in 742.0 W/m2 CLR
15:41 27.8 °F 13.3 °F 1017.5 in Calm     41 % 0.0 in 731.0 W/m2 CLR
15:46 27.8 °F 14.1 °F 1017.5 in Calm     43 % 0.0 in 719.0 W/m2 CLR
15:52 27.8 °F 14.1 °F 1017.5 in ENE 6.4 mph 6.4 mph 43 % 0.0 in 710.0 W/m2 CLR
15:57 28.3 °F 14.9 °F 1017.5 in Calm     44 % 0.0 in 703.0 W/m2 CLR
16:02 27.2 °F 13.9 °F 1017.5 in Calm     44 % 0.0 in 691.0 W/m2 CLR
16:07 28.3 °F 15.3 °F 1017.5 in Calm     45 % 0.0 in 687.0 W/m2 CLR
16:11 28.3 °F 14.6 °F 1017.2 in Calm     43 % 0.0 in 677.0 W/m2 CLR
16:17 28.3 °F 14.2 °F 1017.2 in West 1.9 mph   42 % 0.0 in 668.0 W/m2 CLR
16:22 28.3 °F 14.2 °F 1017.2 in Calm     42 % 0.0 in 654.0 W/m2 CLR
16:27 28.9 °F 14.7 °F 1017.2 in Calm     42 % 0.0 in 645.0 W/m2 CLR
16:32 28.9 °F 14.7 °F 1017.2 in Calm     42 % 0.0 in 631.0 W/m2 CLR
16:37 28.9 °F 14.7 °F 1017.2 in NW 3.7 mph   42 % 0.0 in 626.0 W/m2 CLR
16:42 28.9 °F 14.3 °F 1017.2 in Calm     41 % 0.0 in 615.0 W/m2 CLR
16:47 28.3 °F 14.2 °F 1017.2 in North 3.7 mph 3.7 mph 42 % 0.0 in 601.0 W/m2 CLR
16:52 28.3 °F 13.8 °F 1017.2 in Calm     41 % 0.0 in 591.0 W/m2 CLR
16:57 28.3 °F 14.2 °F 1017.2 in ENE 9.3 mph 9.3 mph 42 % 0.0 in 577.0 W/m2 CLR
17:02 28.3 °F 14.2 °F 1017.2 in North 7.4 mph 7.4 mph 42 % 0.0 in 566.0 W/m2 CLR
17:07 28.3 °F 14.6 °F 1017.2 in NNW 3.7 mph 3.7 mph 43 % 0.0 in 555.0 W/m2 CLR
17:12 28.3 °F 14.6 °F 1017.2 in NW 7.4 mph 7.4 mph 43 % 0.0 in 543.0 W/m2 CLR
17:17 28.9 °F 14.7 °F 1017.2 in NNW 9.7 mph 9.7 mph 42 % 0.0 in 536.0 W/m2 CLR
17:22 28.9 °F 14.7 °F 1017.2 in Calm     42 % 0.0 in 526.0 W/m2 CLR
17:27 28.9 °F 14.3 °F 1017.2 in Calm     41 % 0.0 in 515.0 W/m2 CLR
17:32 28.9 °F 14.3 °F 1017.2 in Calm     41 % 0.0 in 503.0 W/m2 CLR
17:37 29.4 °F 14.4 °F 1017.2 in Calm     40 % 0.0 in 496.0 W/m2 CLR
17:42 28.9 °F 13.9 °F 1017.2 in Calm     40 % 0.0 in 485.0 W/m2 CLR
17:47 28.9 °F 16.1 °F 1017.2 in ENE 1.9 mph 1.9 mph 46 % 0.0 in 483.0 W/m2 CLR
17:52 28.3 °F 16.6 °F 1017.2 in ENE 16.7 mph 16.7 mph 49 % 0.0 in 461.0 W/m2 CLR
17:57 28.3 °F 16.6 °F 1017.5 in NE 14.8 mph 14.8 mph 49 % 0.0 in 445.0 W/m2 CLR
18:02 27.8 °F 16.4 °F 1017.5 in NE 14.8 mph 14.8 mph 50 % 0.0 in 424.0 W/m2 CLR
18:07 27.8 °F 16.7 °F 1017.5 in East 18.5 mph 18.5 mph 51 % 0.0 in 397.0 W/m2 CLR
18:12 28.3 °F 17.2 °F 1017.5 in ENE 18.5 mph 18.5 mph 51 % 0.0 in 366.0 W/m2 CLR
18:17 27.8 °F 17.0 °F 1017.5 in ENE 18.5 mph 18.5 mph 52 % 0.0 in 350.0 W/m2 CLR
18:22 27.8 °F 17.3 °F 1017.8 in ENE 20.4 mph 20.4 mph 53 % 0.0 in 332.0 W/m2 CLR
18:27 27.8 °F 17.6 °F 1017.8 in ENE 18.5 mph 18.5 mph 54 % 0.0 in 63.0 W/m2 CLR
18:32 27.2 °F 17.4 °F 1017.8 in ENE 22.5 mph 22.5 mph 55 % 0.0 in 200.0 W/m2 FEW
18:37 27.2 °F 17.4 °F 1017.8 in East 18.5 mph 18.5 mph 55 % 0.0 in 278.0 W/m2 CLR
18:42 26.7 °F 17.2 °F 1017.8 in NE 18.5 mph 18.5 mph 56 % 0.0 in 264.0 W/m2 CLR
18:47 26.7 °F 17.2 °F 1018.2 in NE 18.5 mph 18.5 mph 56 % 0.0 in 246.0 W/m2 CLR
18:52 26.1 °F 16.9 °F 1018.2 in East 20.9 mph 20.9 mph 57 % 0.0 in 49.0 W/m2 FEW
18:57 26.1 °F 16.9 °F 1018.2 in ENE 18.5 mph 18.5 mph 57 % 0.0 in 207.0 W/m2 FEW
19:02 26.1 °F 16.7 °F 1018.2 in ENE 18.5 mph 18.5 mph 56 % 0.0 in 192.0 W/m2 CLR
19:07 26.1 °F 16.4 °F 1018.2 in East 18.5 mph 18.5 mph 55 % 0.0 in 172.0 W/m2 CLR
19:08 26.1 °F 16.4 °F 1018.2 in East 18.5 mph 18.5 mph 55 % 0.0 in 165.0 W/m2 CLR
19:13 25.6 °F 16.1 °F 1018.2 in ENE 16.7 mph 16.7 mph 56 % 0.0 in 149.0 W/m2 CLR
19:18 25.6 °F 16.1 °F 1018.2 in ENE 22.2 mph 22.2 mph 56 % 0.0 in 134.0 W/m2 CLR
19:23 25.6 °F 16.4 °F 1018.5 in ESE 13.0 mph 13.0 mph 57 % 0.0 in 114.0 W/m2 CLR
19:28 25.6 °F 16.4 °F 1018.5 in East 22.2 mph 22.2 mph 57 % 0.0 in 100.0 W/m2 CLR
19:33 25.6 °F 16.7 °F 1018.5 in ENE 17.7 mph 17.7 mph 58 % 0.0 in 83.0 W/m2 FEW
19:38 25.0 °F 16.2 °F 1018.5 in ENE 16.7 mph 16.7 mph 58 % 0.0 in 70.0 W/m2 FEW
19:43 25.0 °F 16.4 °F 1018.5 in ENE 18.5 mph 18.5 mph 59 % 0.0 in 56.0 W/m2 SCT
19:48 25.0 °F 16.7 °F 1018.8 in ENE 17.7 mph 17.7 mph 60 % 0.0 in 47.0 W/m2 SCT
19:53 24.4 °F 16.4 °F 1018.5 in East 14.8 mph 14.8 mph 61 % 0.0 in 33.0 W/m2 BKN
19:58 24.4 °F 16.4 °F 1018.8 in ENE 16.1 mph 16.1 mph 61 % 0.0 in 26.0 W/m2 BKN
20:03 24.4 °F 16.7 °F 1018.8 in ENE 14.8 mph 14.8 mph 62 % 0.0 in 19.0 W/m2 BKN
20:08 24.4 °F 16.7 °F 1018.8 in East 13.0 mph 13.0 mph 62 % 0.0 in 16.0 W/m2 BKN
20:13 23.9 °F 16.2 °F 1019.2 in ENE 11.1 mph 11.1 mph 62 % 0.0 in 12.0 W/m2 BKN
20:18 23.9 °F 16.2 °F 1019.2 in ENE 13.0 mph 13.0 mph 62 % 0.0 in 9.0 W/m2 BKN
20:23 23.3 °F 15.7 °F 1019.2 in NE 8.0 mph 8.0 mph 62 % 0.0 in 5.0 W/m2 BKN
20:29 23.3 °F 15.9 °F 1019.2 in ENE 9.3 mph 9.3 mph 63 % 0.0 in 0.0 W/m2 OVC
20:34 22.8 °F 15.4 °F 1019.2 in NE 5.6 mph 6.3 mph 63 % 0.0 in 0.0 W/m2 OVC
20:39 22.8 °F 15.6 °F 1019.5 in ENE 3.7 mph 4.8 mph 64 % 0.0 in 0.0 W/m2 CLR
20:44 22.8 °F 15.6 °F 1019.5 in Calm     64 % 0.0 in 0.0 W/m2 CLR
20:49 22.2 °F 15.3 °F 1019.5 in East 8.0 mph 9.0 mph 65 % 0.0 in 0.0 W/m2 CLR
20:54 22.2 °F 15.3 °F 1019.5 in East 13.0 mph 13.0 mph 65 % 0.0 in 0.0 W/m2 CLR
20:59 21.7 °F 15.1 °F 1019.5 in ENE 9.3 mph 9.3 mph 66 % 0.0 in 0.0 W/m2 CLR
21:04 21.7 °F 15.1 °F 1019.5 in East 13.0 mph 13.0 mph 66 % 0.0 in 0.0 W/m2 CLR
21:09 21.7 °F 15.1 °F 1019.5 in East 9.3 mph 9.3 mph 66 % 0.0 in 0.0 W/m2 CLR
21:14 21.7 °F 15.3 °F 1019.9 in East 9.7 mph 9.7 mph 67 % 0.0 in 0.0 W/m2 CLR
21:19 21.7 °F 15.3 °F 1019.9 in ENE 13.0 mph 13.0 mph 67 % 0.0 in 0.0 W/m2 CLR
21:24 21.1 °F 14.7 °F 1019.9 in ENE 9.7 mph 9.7 mph 67 % 0.0 in 0.0 W/m2 CLR
21:29 21.1 °F 15.0 °F 1020.2 in ENE 5.6 mph   68 % 0.0 in 0.0 W/m2 CLR
21:34 20.6 °F 14.4 °F 1020.2 in Calm     68 % 0.0 in 0.0 W/m2 CLR
21:39 20.0 °F 14.1 °F 1020.2 in East 5.6 mph   69 % 0.0 in 0.0 W/m2 CLR
21:45 20.0 °F 14.3 °F 1020.2 in Calm   1.1 mph 70 % 0.0 in 0.0 W/m2 CLR
21:50 19.4 °F 13.8 °F 1020.5 in ENE 9.3 mph 9.3 mph 70 % 0.0 in 0.0 W/m2 CLR
21:55 19.4 °F 13.8 °F 1020.5 in ENE 9.7 mph 9.7 mph 70 % 0.0 in 0.0 W/m2 CLR
22:00 19.4 °F 13.8 °F 1020.5 in ENE 11.1 mph 11.1 mph 70 % 0.0 in 0.0 W/m2 CLR
22:05 19.4 °F 14.1 °F 1020.5 in ENE 11.1 mph 11.1 mph 71 % 0.0 in 0.0 W/m2 CLR
22:10 19.4 °F 14.1 °F 1020.5 in East 13.0 mph 13.0 mph 71 % 0.0 in 0.0 W/m2 CLR
22:15 19.4 °F 14.1 °F 1020.5 in ENE 4.8 mph 4.8 mph 71 % 0.0 in 0.0 W/m2 CLR
22:20 19.4 °F 14.3 °F 1020.5 in ENE 13.0 mph 13.0 mph 72 % 0.0 in 0.0 W/m2 CLR
22:25 19.4 °F 14.3 °F 1020.9 in Calm     72 % 0.0 in 0.0 W/m2 CLR
22:30 19.4 °F 14.3 °F 1020.9 in Calm     72 % 0.0 in 0.0 W/m2 CLR
22:35 18.9 °F 13.7 °F 1020.9 in Calm     72 % 0.0 in 0.0 W/m2 CLR
22:36 18.9 °F 13.7 °F 1020.9 in Calm     72 % 0.0 in 0.0 W/m2 CLR
22:41 18.9 °F 13.7 °F 1020.9 in Calm     72 % 0.0 in 0.0 W/m2 CLR
22:46 18.9 °F 13.7 °F 1020.9 in Calm     72 % 0.0 in 0.0 W/m2 CLR
22:51 18.9 °F 13.9 °F 1021.2 in Calm     73 % 0.0 in 0.0 W/m2 CLR
22:56 18.3 °F 13.6 °F 1021.2 in Calm     74 % 0.0 in 0.0 W/m2 CLR
23:01 18.3 °F 13.6 °F 1021.6 in Calm     74 % 0.0 in 0.0 W/m2 CLR
23:06 18.3 °F 13.8 °F 1021.6 in Calm     75 % 0.0 in 0.0 W/m2 CLR
23:11 17.8 °F 13.3 °F 1021.6 in Calm     75 % 0.0 in 0.0 W/m2 CLR
23:16 17.8 °F 13.3 °F 1021.6 in Calm     75 % 0.0 in 0.0 W/m2 CLR
23:21 17.8 °F 13.3 °F 1021.6 in Calm     75 % 0.0 in 0.0 W/m2 CLR
23:26 17.8 °F 13.3 °F 1021.6 in Calm     75 % 0.0 in 0.0 W/m2 CLR
23:31 17.8 °F 13.5 °F 1021.6 in Calm     76 % 0.0 in 0.0 W/m2 CLR
23:36 17.2 °F 13.3 °F 1021.6 in Calm     78 % 0.0 in 0.0 W/m2 CLR
23:41 17.2 °F 13.3 °F 1021.6 in Calm     78 % 0.0 in 0.0 W/m2 CLR
23:51 17.2 °F 13.3 °F 1021.9 in Calm     78 % 0.0 in 0.0 W/m2 CLR
23:56 17.2 °F 13.3 °F 1021.9 in Calm     78 % 0.0 in 0.0 W/m2 CLR
Lo Temps de Massalio
Compliments of Weather Underground - 1.25 mb